Decoded Metar for LFQQ (LILLE in FRANCE) (IATA:LIL) | Meteo·Mobile Aviation Weather
aviador You're here:

LFQQ Decoded Metar

LILLE in FRANCE
Report Time2019-02-23 01:00:00
UTC Time2019-02-23 01:23:28
Flight Rules ifr IFR
Wind070° at 04 kt
W.Decomp.*RWY 08: 3.9 kt HW 0.7 kt LCW
RWY 02: 2.6 kt HW 3.1 kt RCW
W.Rank070° ranks 21
Current wind is below 070° avg. (6.2)
Visibility4000 m
Phenomena:Mist
Fog
Clouds:N/A
Expected CloudBase > 400 ft AGL from Temp-Dew spread
CeilingNone
Temp07°C (ISA -8)
Dew Point06°C (93% RH)
AAT4.6°C
QNH1036 hPa
Density Alt-1,401 ft
Elevation171 ft
Report Wrong Elevation
Raw Report
METAR LFQQ 230100Z AUTO 07004KT 4000 BR NSC 07/06 Q1036 TEMPO 0300
FG VV///=

Extra information for LFQQ:More info

Metar Taf Metar & Taf Last 4 Metars F.Rules Stats Wind Profile Meteogram Temp Stats Airport Information Weather charts Add Link Nearby VenuesMetar ALERT Operation Metar Decoded Social comments